Time;durP1;ratioP1;P1;durP2;ratioP2;P2;SDS_P1;SDS_P2;PMS_P1;PMS_P2;Temp;Humidity;BMP_temperature;BMP_pressure;BME280_temperature;BME280_humidity;BME280_pressure;Samples;Min_cycle;Max_cycle;Signal;HPM_P1;HPM_P2
2021/05/29 00:01:01;;;;;;;5.50;4.03;;;;;;;6.88;74.23;99978.89;1798160;78;21124;-67
2021/05/29 00:03:28;;;;;;;5.85;4.05;;;;;;;6.90;74.20;99987.50;1800379;78;21060;-66
2021/05/29 00:05:55;;;;;;;5.45;3.83;;;;;;;6.91;74.25;99989.19;1801237;78;21581;-66
2021/05/29 00:08:23;;;;;;;5.70;4.33;;;;;;;6.97;74.37;99987.32;1805325;78;20938;-66
2021/05/29 00:10:53;;;;;;;4.25;3.70;;;;;;;6.98;74.25;99989.88;1805387;78;21659;-66
2021/05/29 00:13:22;;;;;;;7.72;3.83;;;;;;;7.00;74.37;99984.63;1789749;78;21661;-67
2021/05/29 00:15:49;;;;;;;6.60;4.10;;;;;;;7.03;74.46;99984.55;1781602;79;22214;-67
2021/05/29 00:18:16;;;;;;;6.10;4.17;;;;;;;7.08;74.54;99980.08;1778367;79;21073;-66
2021/05/29 00:20:44;;;;;;;4.85;3.60;;;;;;;7.10;74.49;99981.73;1782315;79;20972;-67
2021/05/29 00:23:12;;;;;;;11.20;3.67;;;;;;;7.08;74.42;99983.52;1785853;79;21039;-67
2021/05/29 00:25:40;;;;;;;5.15;4.03;;;;;;;7.10;74.52;99980.44;1785286;79;22798;-67
2021/05/29 00:28:09;;;;;;;5.05;3.45;;;;;;;7.14;74.61;99985.08;1783532;79;21051;-66
2021/05/29 00:30:39;;;;;;;6.83;3.92;;;;;;;7.16;74.58;99985.91;1773493;80;21034;-67
2021/05/29 00:33:07;;;;;;;4.70;3.50;;;;;;;7.18;74.63;99979.77;1779382;80;20989;-67
2021/05/29 00:35:34;;;;;;;4.58;3.52;;;;;;;7.22;74.64;99981.81;1781898;79;21551;-66
2021/05/29 00:38:01;;;;;;;3.83;3.22;;;;;;;7.25;74.68;99980.42;1742662;81;21480;-67
2021/05/29 00:40:27;;;;;;;5.87;3.95;;;;;;;7.25;74.63;99980.42;1768587;79;21011;-67
2021/05/29 00:42:54;;;;;;;6.10;3.02;;;;;;;7.25;74.78;99983.02;1773935;79;21060;-67
2021/05/29 00:45:21;;;;;;;3.90;3.50;;;;;;;7.26;74.78;99979.55;1743360;81;21032;-67
2021/05/29 00:47:47;;;;;;;3.83;3.50;;;;;;;7.28;74.78;99982.96;1791306;79;20966;-67
2021/05/29 00:50:15;;;;;;;3.75;3.20;;;;;;;7.32;74.90;99979.36;1787981;79;21814;-66
2021/05/29 00:52:42;;;;;;;3.95;3.55;;;;;;;7.32;74.76;99974.62;1780721;79;21575;-67
2021/05/29 00:55:12;;;;;;;5.15;3.15;;;;;;;7.32;74.86;99976.77;1788172;79;21598;-67
2021/05/29 00:57:42;;;;;;;4.45;3.55;;;;;;;7.33;74.90;99979.75;1787456;79;20950;-66
2021/05/29 01:00:10;;;;;;;5.83;3.40;;;;;;;7.35;74.94;99976.67;1787448;79;21012;-66
2021/05/29 01:02:37;;;;;;;3.70;3.37;;;;;;;7.38;74.93;99973.13;1780496;78;21465;-66
2021/05/29 01:05:09;;;;;;;5.60;3.30;;;;;;;7.37;74.99;99972.29;1774564;79;21062;-66
2021/05/29 01:07:36;;;;;;;5.15;3.65;;;;;;;7.40;75.03;99965.70;1780618;79;21090;-66
2021/05/29 01:10:06;;;;;;;4.15;2.85;;;;;;;7.42;75.04;99963.49;1787934;79;21013;-67
2021/05/29 01:12:33;;;;;;;3.42;2.98;;;;;;;7.39;74.99;99974.41;1787562;78;20932;-68
2021/05/29 01:15:00;;;;;;;6.28;3.35;;;;;;;7.37;75.10;99967.09;1786302;78;21396;-67
2021/05/29 01:17:29;;;;;;;3.83;2.95;;;;;;;7.35;75.06;99967.58;1790954;78;21151;-68
2021/05/29 01:19:56;;;;;;;5.20;3.55;;;;;;;7.32;75.00;99966.38;1776829;78;21003;-68
2021/05/29 01:22:40;;;;;;;3.67;3.15;;;;;;;7.26;75.07;99961.38;1796840;78;20985;-68
2021/05/29 01:25:30;;;;;;;4.00;3.30;;;;;;;7.25;75.11;99962.25;1748537;81;21017;-68
2021/05/29 01:28:05;;;;;;;4.87;3.27;;;;;;;7.18;75.13;99956.39;1782362;78;21630;-67
2021/05/29 01:30:49;;;;;;;3.90;3.20;;;;;;;7.12;75.15;99958.33;1793974;78;21089;-67
2021/05/29 01:33:23;;;;;;;3.45;3.12;;;;;;;7.08;75.21;99952.36;1774672;78;20960;-68
2021/05/29 01:35:52;;;;;;;3.55;3.25;;;;;;;7.06;75.33;99954.63;1806194;78;20999;-67
2021/05/29 01:38:22;;;;;;;3.35;2.98;;;;;;;7.03;75.30;99948.20;1783484;78;21828;-68
2021/05/29 01:40:50;;;;;;;3.70;2.72;;;;;;;6.99;75.37;99944.84;1751881;78;21039;-67
2021/05/29 01:43:18;;;;;;;4.12;2.90;;;;;;;6.92;75.35;99946.78;1796208;78;21022;-68
2021/05/29 01:45:45;;;;;;;4.10;2.58;;;;;;;6.86;75.35;99948.68;1751975;81;28698;-67
2021/05/29 01:48:12;;;;;;;4.47;3.85;;;;;;;6.82;75.51;99937.55;1805469;78;21575;-67
2021/05/29 01:50:46;;;;;;;5.95;3.80;;;;;;;6.80;75.50;99936.73;1756234;81;21685;-67
2021/05/29 01:53:17;;;;;;;4.08;3.58;;;;;;;6.76;75.49;99937.72;1789841;78;21083;-67
2021/05/29 01:55:46;;;;;;;4.45;3.22;;;;;;;6.78;75.58;99935.94;1776469;78;21027;-68
2021/05/29 01:58:14;;;;;;;4.75;3.60;;;;;;;6.73;75.63;99943.00;1773471;79;21096;-67
2021/05/29 02:00:41;;;;;;;4.92;3.58;;;;;;;6.77;75.83;99939.41;1773685;79;21015;-67
2021/05/29 02:03:07;;;;;;;4.12;3.42;;;;;;;6.81;75.86;99938.45;1783567;79;20998;-67
2021/05/29 02:05:35;;;;;;;4.67;3.10;;;;;;;6.83;75.78;99939.23;1773662;79;21036;-67
2021/05/29 02:08:08;;;;;;;5.85;3.90;;;;;;;6.81;75.78;99933.26;1768446;79;20929;-67
2021/05/29 02:10:39;;;;;;;6.12;3.60;;;;;;;6.80;75.81;99941.92;1796026;78;20988;-68
2021/05/29 02:13:10;;;;;;;5.70;3.40;;;;;;;6.79;75.93;99935.04;1755906;79;21023;-67
2021/05/29 02:15:40;;;;;;;4.78;3.72;;;;;;;6.79;75.89;99935.04;1790884;78;20996;-68
2021/05/29 02:18:10;;;;;;;6.12;4.40;;;;;;;6.81;75.96;99941.05;1803218;78;21302;-67
2021/05/29 02:20:50;;;;;;;6.83;4.10;;;;;;;6.78;75.92;99935.94;1796704;78;20977;-67
2021/05/29 02:23:27;;;;;;;4.80;3.90;;;;;;;6.75;75.89;99929.55;1799425;78;20972;-67
2021/05/29 02:25:59;;;;;;;6.47;4.03;;;;;;;6.72;75.99;99931.78;1752749;78;21039;-66
2021/05/29 02:28:25;;;;;;;4.78;3.98;;;;;;;6.72;76.08;99930.90;1780869;78;20968;-68
2021/05/29 02:30:53;;;;;;;4.03;3.62;;;;;;;6.73;76.08;99931.33;1789892;78;21014;-68
2021/05/29 02:33:21;;;;;;;4.65;4.17;;;;;;;6.74;76.24;99931.72;1784205;78;27010;-67
2021/05/29 02:35:48;;;;;;;4.80;3.83;;;;;;;6.78;76.31;99925.56;1793874;78;20961;-68
2021/05/29 02:38:15;;;;;;;4.70;4.13;;;;;;;6.84;76.34;99929.73;1799021;78;21275;-68
2021/05/29 02:40:41;;;;;;;10.70;4.00;;;;;;;6.86;76.33;99930.09;1793243;78;20988;-67
2021/05/29 02:43:08;;;;;;;4.33;3.80;;;;;;;6.86;76.39;99926.20;1795609;78;21796;-67
2021/05/29 02:45:35;;;;;;;6.37;4.55;;;;;;;6.90;76.42;99930.39;1798277;78;22127;-67
2021/05/29 02:48:03;;;;;;;5.42;4.25;;;;;;;6.94;76.47;99925.95;1795754;78;21601;-67
2021/05/29 02:50:30;;;;;;;4.75;3.72;;;;;;;6.97;76.54;99932.80;1794562;78;28833;-67
2021/05/29 02:52:56;;;;;;;5.92;3.95;;;;;;;7.02;76.56;99930.48;1793357;78;20930;-67
2021/05/29 02:55:23;;;;;;;6.65;4.42;;;;;;;7.08;76.65;99929.44;1799599;78;21107;-67
2021/05/29 02:57:52;;;;;;;7.13;4.67;;;;;;;7.13;76.58;99931.46;1793952;78;20964;-67
2021/05/29 03:00:22;;;;;;;10.20;4.60;;;;;;;7.14;76.53;99934.45;1794383;78;21561;-67
2021/05/29 03:02:49;;;;;;;5.78;4.25;;;;;;;7.18;76.67;99938.67;1800280;78;21059;-68
2021/05/29 03:05:15;;;;;;;6.20;4.87;;;;;;;7.20;76.59;99929.52;1763063;79;21034;-67
2021/05/29 03:07:43;;;;;;;8.10;4.50;;;;;;;7.20;76.66;99932.99;1775201;78;21106;-67
2021/05/29 03:10:10;;;;;;;4.55;3.98;;;;;;;7.22;76.73;99927.73;1799212;78;21044;-67
2021/05/29 03:12:38;;;;;;;4.78;4.10;;;;;;;7.25;76.74;99925.89;1806269;78;21071;-67
2021/05/29 03:15:13;;;;;;;6.45;4.85;;;;;;;7.30;76.85;99926.60;1801740;78;21600;-68
2021/05/29 03:17:40;;;;;;;6.47;4.72;;;;;;;7.33;76.77;99926.96;1780367;78;21683;-68
2021/05/29 03:20:09;;;;;;;7.40;4.25;;;;;;;7.37;76.84;99924.23;1771400;79;21032;-67
2021/05/29 03:22:36;;;;;;;5.12;4.45;;;;;;;7.43;76.92;99922.34;1803468;78;21045;-68
2021/05/29 03:25:06;;;;;;;7.03;4.40;;;;;;;7.47;76.80;99917.44;1797971;78;21004;-68
2021/05/29 03:27:34;;;;;;;6.55;4.33;;;;;;;7.52;76.87;99923.34;1790976;78;22445;-68
2021/05/29 03:30:00;;;;;;;;;;;;;;;7.54;76.83;99928.05;1797431;78;21003;-67
2021/05/29 03:32:27;;;;;;;5.23;4.13;;;;;;;7.58;76.98;99927.89;1796987;77;21886;-68
2021/05/29 03:34:53;;;;;;;6.90;4.60;;;;;;;7.62;76.93;99919.12;1796157;78;21132;-67
2021/05/29 03:37:20;;;;;;;5.30;4.50;;;;;;;7.63;76.83;99924.70;1796707;78;20973;-68
2021/05/29 03:39:46;;;;;;;7.87;4.62;;;;;;;7.61;76.84;99926.95;1797194;78;21107;-67
2021/05/29 03:42:13;;;;;;;6.87;4.33;;;;;;;7.64;76.90;99926.84;1798315;78;21043;-67
2021/05/29 03:44:40;;;;;;;5.77;3.97;;;;;;;7.69;76.96;99928.02;1798548;78;21377;-67
2021/05/29 03:47:06;;;;;;;6.85;4.15;;;;;;;7.73;76.95;99930.47;1798978;78;21049;-67
2021/05/29 03:49:33;;;;;;;5.93;3.97;;;;;;;7.79;77.04;99925.52;1791744;78;22414;-68
2021/05/29 03:51:59;;;;;;;7.17;4.27;;;;;;;7.88;76.99;99928.27;1799813;78;20964;-67
2021/05/29 03:54:26;;;;;;;7.65;4.28;;;;;;;8.01;77.10;99932.14;1796034;78;20996;-67
2021/05/29 03:56:53;;;;;;;8.45;4.37;;;;;;;8.23;77.13;99930.55;1799129;78;21048;-68
2021/05/29 03:59:21;;;;;;;6.73;4.50;;;;;;;8.52;77.18;99923.50;1797413;78;21032;-67
2021/05/29 04:01:47;;;;;;;;;;;;;;;8.83;77.11;99927.59;1797792;78;20968;-68
2021/05/29 04:04:13;;;;;;;9.08;4.12;;;;;;;9.15;77.01;99927.68;1778341;78;20225;-68
2021/05/29 04:06:40;;;;;;;5.47;3.92;;;;;;;9.31;76.72;99930.55;1776114;79;21151;-68
2021/05/29 04:09:09;;;;;;;5.17;3.77;;;;;;;9.37;76.56;99931.62;1798617;78;21864;-68
2021/05/29 04:11:35;;;;;;;7.10;4.35;;;;;;;9.42;76.42;99929.69;1795318;78;20960;-68
2021/05/29 04:14:04;;;;;;;5.03;3.12;;;;;;;9.49;76.62;99935.50;1792110;78;21600;-67
2021/05/29 04:16:31;;;;;;;5.17;3.87;;;;;;;9.61;76.76;99931.12;1765772;80;21667;-66
2021/05/29 04:18:58;;;;;;;5.05;3.80;;;;;;;9.79;76.81;99929.52;1783805;78;20990;-65
2021/05/29 04:21:25;;;;;;;6.67;3.60;;;;;;;9.96;76.47;99930.97;1785763;79;22172;-65
2021/05/29 04:23:52;;;;;;;7.60;3.70;;;;;;;10.03;76.65;99932.42;1785117;79;21647;-65
2021/05/29 04:26:20;;;;;;;4.33;3.00;;;;;;;10.05;76.20;99930.61;1787399;79;21590;-65
2021/05/29 04:28:48;;;;;;;3.98;2.65;;;;;;;9.91;76.05;99930.30;1784146;79;20996;-66
2021/05/29 04:31:14;;;;;;;;;;;;;;;9.89;76.37;99936.06;1789647;78;21092;-66
2021/05/29 04:33:41;;;;;;;4.65;3.50;;;;;;;9.83;76.16;99944.11;1789376;78;21137;-65
2021/05/29 04:36:08;;;;;;;5.03;3.70;;;;;;;9.84;76.51;99941.92;1790989;78;20998;-66
2021/05/29 04:38:34;;;;;;;6.67;4.30;;;;;;;9.96;76.54;99949.23;1785290;78;21006;-68
2021/05/29 04:41:01;;;;;;;5.97;3.43;;;;;;;10.03;76.63;99936.34;1790522;78;21007;-69
2021/05/29 04:43:28;;;;;;;4.90;2.87;;;;;;;10.08;76.25;99939.61;1755197;80;21072;-68
2021/05/29 04:45:54;;;;;;;5.03;2.87;;;;;;;10.25;76.55;99940.20;1775352;79;21145;-69
2021/05/29 04:48:21;;;;;;;4.60;3.00;;;;;;;10.39;76.46;99935.73;1758162;80;21039;-68
2021/05/29 04:53:33;;;;;;;3.20;2.90;;;;;;;10.56;76.17;99936.31;1790008;79;21063;-68
2021/05/29 04:56:01;;;;;;;4.00;2.87;;;;;;;10.59;76.09;99932.72;1790084;78;21007;-69
2021/05/29 04:58:29;;;;;;;3.47;2.47;;;;;;;10.76;76.27;99938.03;1793806;78;21096;-68
2021/05/29 05:00:56;;;;;;;3.37;3.00;;;;;;;10.87;76.06;99930.56;1765718;79;21012;-68
2021/05/29 05:03:24;;;;;;;4.30;2.77;;;;;;;11.02;76.23;99936.02;1786564;78;21033;-68
2021/05/29 05:05:51;;;;;;;2.72;2.37;;;;;;;11.59;76.54;99936.80;1786495;79;21055;-68
2021/05/29 05:08:18;;;;;;;2.95;2.47;;;;;;;11.73;75.46;99936.98;1789075;78;20940;-68
2021/05/29 05:10:44;;;;;;;4.15;3.17;;;;;;;11.73;75.46;99936.98;1792456;79;21031;-68
2021/05/29 05:13:11;;;;;;;2.90;2.60;;;;;;;11.73;75.40;99934.36;1793542;78;22609;-68
2021/05/29 05:15:38;;;;;;;5.70;2.83;;;;;;;12.12;76.12;99936.44;1795656;78;20964;-69
2021/05/29 05:18:07;;;;;;;2.70;2.50;;;;;;;13.15;76.75;99927.52;1792307;78;21107;-68
2021/05/29 05:20:37;;;;;;;3.30;2.33;;;;;;;13.71;75.25;99923.16;1791687;78;21055;-68
2021/05/29 05:23:05;;;;;;;2.58;2.37;;;;;;;13.81;74.88;99916.47;1790783;78;21066;-68
2021/05/29 05:25:33;;;;;;;3.37;2.70;;;;;;;13.66;74.17;99927.34;1802070;78;20968;-68
2021/05/29 05:28:00;;;;;;;3.45;2.60;;;;;;;13.29;73.38;99935.13;1800202;78;20971;-68
2021/05/29 05:30:27;;;;;;;2.58;2.37;;;;;;;12.97;74.00;99935.08;1750960;80;28198;-68
2021/05/29 05:33:01;;;;;;;2.55;2.22;;;;;;;12.78;74.18;99930.44;1782083;78;21005;-67
2021/05/29 05:35:26;;;;;;;2.90;2.60;;;;;;;12.88;74.26;99940.79;1792266;78;21872;-68
2021/05/29 05:37:53;;;;;;;4.22;2.40;;;;;;;12.71;74.01;99941.21;1803146;78;21044;-69
2021/05/29 05:40:20;;;;;;;3.27;2.37;;;;;;;12.54;74.39;99939.95;1807153;78;20958;-69
2021/05/29 05:42:47;;;;;;;3.72;2.33;;;;;;;12.54;74.39;99939.95;1805629;78;21423;-68
2021/05/29 05:45:14;;;;;;;3.10;2.15;;;;;;;12.47;74.53;99937.28;1803042;78;21143;-66
2021/05/29 05:47:41;;;;;;;3.00;2.27;;;;;;;12.36;74.31;99938.29;1805588;78;20968;-66
2021/05/29 05:50:09;;;;;;;2.25;2.05;;;;;;;12.08;73.58;99943.61;1798289;78;21022;-65
2021/05/29 05:52:38;;;;;;;4.08;2.35;;;;;;;11.72;73.99;99944.45;1785557;78;20992;-65
2021/05/29 05:55:07;;;;;;;4.80;2.12;;;;;;;11.85;74.64;99928.59;1786984;78;21720;-64
2021/05/29 05:57:34;;;;;;;1.92;1.40;;;;;;;11.85;74.64;99928.59;1788008;78;20999;-67
2021/05/29 06:00:01;;;;;;;;;;;;;;;12.00;74.62;99910.42;1793155;78;22247;-65
2021/05/29 06:02:28;;;;;;;1.57;1.47;;;;;;;12.22;74.41;99930.67;1769173;79;20216;-65
2021/05/29 06:04:55;;;;;;;3.02;1.72;;;;;;;12.33;73.90;99930.59;1804479;78;20952;-65
2021/05/29 06:07:21;;;;;;;3.67;1.90;;;;;;;12.51;74.26;99939.63;1807312;78;21634;-64
2021/05/29 06:09:48;;;;;;;1.93;1.80;;;;;;;12.78;74.06;99934.37;1802414;78;21060;-65
2021/05/29 06:12:15;;;;;;;4.12;2.10;;;;;;;12.95;73.70;99940.86;1800463;78;21110;-66
2021/05/29 06:20:14;;;;;;;2.15;1.30;;;;;;;13.05;73.51;99943.38;1785240;79;21035;-65
2021/05/29 06:22:40;;;;;;;;;;;;;;;13.04;73.30;99950.84;1784002;79;21575;-65
2021/05/29 06:25:12;;;;;;;1.90;1.52;;;;;;;12.98;73.12;99947.24;1784965;79;21511;-66
2021/05/29 06:27:38;;;;;;;2.15;1.20;;;;;;;12.87;72.13;99941.73;1783833;79;21028;-65
2021/05/29 06:30:08;;;;;;;1.87;1.47;;;;;;;12.48;72.43;99944.20;1778367;79;20992;-65
2021/05/29 06:32:39;;;;;;;2.42;1.20;;;;;;;12.61;73.58;99939.19;1786118;79;21001;-65
2021/05/29 06:35:08;;;;;;;3.60;1.60;;;;;;;12.80;73.11;99927.25;1791169;79;21084;-65
2021/05/29 06:37:36;;;;;;;1.60;1.50;;;;;;;12.18;69.89;99940.89;1787662;79;21104;-65
2021/05/29 06:40:06;;;;;;;1.80;1.35;;;;;;;11.76;72.24;99938.17;1790887;79;21195;-65
2021/05/29 06:42:33;;;;;;;1.90;1.42;;;;;;;11.55;72.24;99931.34;1789950;79;21039;-67
2021/05/29 06:45:00;;;;;;;1.42;1.10;;;;;;;11.48;72.84;99939.08;1784136;79;20992;-68
2021/05/29 06:47:27;;;;;;;1.50;0.90;;;;;;;11.88;73.37;99937.21;1786488;79;20996;-67
2021/05/29 06:49:53;;;;;;;1.87;1.45;;;;;;;11.89;71.68;99932.36;1758992;80;21701;-65
2021/05/29 06:52:23;;;;;;;1.47;0.80;;;;;;;11.79;72.10;99931.48;1797948;78;20979;-66
2021/05/29 07:00:11;;;;;;;2.90;1.15;;;;;;;11.00;71.78;99911.70;1794060;78;21031;-67
2021/05/29 07:02:38;;;;;;;1.50;1.22;;;;;;;10.93;72.45;99932.89;1794898;79;21054;-67
2021/05/29 07:05:09;;;;;;;1.77;1.30;;;;;;;10.92;72.58;99941.66;1767519;79;21059;-67
2021/05/29 07:07:35;;;;;;;2.83;1.50;;;;;;;10.82;72.60;99937.76;1754493;79;21119;-67
2021/05/29 07:10:05;;;;;;;2.05;1.60;;;;;;;10.73;72.83;99938.17;1785550;79;21574;-67
2021/05/29 07:12:31;;;;;;;1.35;1.25;;;;;;;10.72;73.09;99946.91;1762873;79;21035;-67
2021/05/29 07:14:58;;;;;;;2.85;1.50;;;;;;;10.67;72.87;99941.03;1799033;78;20990;-67
2021/05/29 07:17:31;;;;;;;4.30;1.80;;;;;;;10.67;72.98;99947.56;1756129;80;21630;-67
2021/05/29 07:19:53;;;;;;;2.02;1.80;;;;;;;10.62;73.12;99945.63;1782978;78;21656;-66
2021/05/29 07:22:20;;;;;;;3.10;2.20;;;;;;;10.66;73.17;99944.57;1763261;80;20981;-66
2021/05/29 07:24:47;;;;;;;3.15;2.20;;;;;;;10.76;73.22;99951.09;1774780;78;21584;-66
2021/05/29 07:27:15;;;;;;;4.08;3.52;;;;;;;10.89;73.24;99949.61;1781436;79;21079;-66
2021/05/29 07:29:44;;;;;;;3.02;2.70;;;;;;;11.08;73.21;99951.41;1788001;78;20997;-67
2021/05/29 07:32:10;;;;;;;4.67;3.17;;;;;;;11.34;73.29;99948.45;1775633;80;21294;-66
2021/05/29 07:34:37;;;;;;;4.25;3.10;;;;;;;11.51;72.75;99949.39;1775687;79;21879;-66
2021/05/29 07:37:04;;;;;;;3.37;2.62;;;;;;;11.62;72.72;99951.03;1777616;78;21003;-67
2021/05/29 07:39:32;;;;;;;3.60;2.70;;;;;;;11.78;72.86;99950.69;1724588;80;21045;-66
2021/05/29 07:41:59;;;;;;;3.42;2.17;;;;;;;11.83;72.12;99950.48;1777212;80;21031;-65
2021/05/29 07:44:26;;;;;;;2.70;2.50;;;;;;;11.57;72.19;99948.66;1792756;78;20991;-65
2021/05/29 07:46:52;;;;;;;3.85;2.00;;;;;;;11.44;72.57;99946.23;1774417;78;21017;-65
2021/05/29 07:49:19;;;;;;;2.70;2.33;;;;;;;11.42;72.72;99952.83;1778573;80;21031;-65
2021/05/29 07:51:45;;;;;;;3.83;2.20;;;;;;;11.31;72.86;99956.41;1757516;80;21820;-65
2021/05/29 07:54:13;;;;;;;5.33;2.47;;;;;;;11.38;73.08;99960.44;1783863;78;21043;-65
2021/05/29 07:56:40;;;;;;;2.98;2.05;;;;;;;11.43;72.71;99953.70;1766807;80;21024;-66
2021/05/29 07:59:11;;;;;;;2.62;2.15;;;;;;;11.47;73.17;99953.09;1779332;78;20972;-65
2021/05/29 08:01:36;;;;;;;2.33;1.90;;;;;;;11.93;73.82;99956.13;1779433;80;21007;-65
2021/05/29 08:04:03;;;;;;;2.42;2.00;;;;;;;12.56;73.77;99951.20;1790303;78;21659;-67
2021/05/29 08:06:31;;;;;;;4.65;1.80;;;;;;;12.95;71.44;99950.03;1758751;79;22368;-65
2021/05/29 08:08:57;;;;;;;2.92;1.82;;;;;;;13.14;72.38;99953.36;1732600;80;20968;-65
2021/05/29 08:11:25;;;;;;;5.60;1.90;;;;;;;13.39;71.03;99949.44;1783362;80;21014;-65
2021/05/29 08:13:54;;;;;;;;;;;;;;;13.45;71.20;99950.40;1787024;78;20975;-65
2021/05/29 08:16:23;;;;;;;2.12;1.60;;;;;;;13.51;71.35;99947.43;1781925;78;21473;-64
2021/05/29 08:18:52;;;;;;;1.92;1.60;;;;;;;13.60;70.84;99950.84;1780310;79;20971;-65
2021/05/29 08:21:19;;;;;;;3.67;1.70;;;;;;;13.36;70.43;99958.31;1802653;78;22240;-65
2021/05/29 08:23:46;;;;;;;1.52;1.17;;;;;;;13.43;71.32;99956.19;1764708;79;21613;-65
2021/05/29 08:26:14;;;;;;;2.20;1.80;;;;;;;13.62;71.07;99955.55;1799428;78;20953;-65
2021/05/29 08:28:44;;;;;;;1.75;1.60;;;;;;;13.98;71.64;99947.83;1802057;78;21146;-65
2021/05/29 08:31:10;;;;;;;2.90;1.65;;;;;;;14.52;70.39;99950.80;1797263;78;21087;-65
2021/05/29 08:33:39;;;;;;;2.17;1.45;;;;;;;14.41;69.74;99950.55;1795274;78;21735;-65
2021/05/29 08:36:07;;;;;;;1.37;1.25;;;;;;;14.59;69.11;99947.79;1800337;78;21061;-65
2021/05/29 08:38:34;;;;;;;1.95;1.15;;;;;;;14.13;68.21;99942.63;1806089;78;21636;-65
2021/05/29 08:41:01;;;;;;;2.27;1.50;;;;;;;13.81;68.69;99945.34;1794079;78;21056;-65
2021/05/29 08:43:28;;;;;;;2.52;1.52;;;;;;;13.47;68.24;99949.86;1803927;78;20999;-66
2021/05/29 08:45:55;;;;;;;2.83;1.70;;;;;;;13.11;69.03;99956.15;1799612;78;20983;-65
2021/05/29 08:48:21;;;;;;;;;;;;;;;12.88;69.17;99969.62;1801127;78;21125;-65
2021/05/29 08:53:34;;;;;;;2.62;1.00;;;;;;;12.74;69.80;99971.21;1798455;78;21537;-65
2021/05/29 08:56:01;;;;;;;1.65;1.30;;;;;;;12.76;69.62;99973.27;1799041;78;20965;-65
2021/05/29 08:58:29;;;;;;;4.78;1.15;;;;;;;13.21;70.11;99962.56;1802092;78;21060;-65
2021/05/29 09:00:59;;;;;;;1.65;1.10;;;;;;;13.39;69.39;99970.41;1800023;78;21079;-65
2021/05/29 09:03:52;;;;;;;1.52;1.00;;;;;;;13.51;68.21;99964.48;1759748;79;21010;-66
2021/05/29 09:06:27;;;;;;;4.22;1.42;;;;;;;13.55;68.74;99962.53;1756960;79;21163;-66
2021/05/29 09:08:57;;;;;;;4.92;1.45;;;;;;;13.28;68.52;99980.65;1759081;79;21027;-65
2021/05/29 09:11:49;;;;;;;1.55;1.40;;;;;;;12.79;68.16;99988.45;1768046;79;21082;-65
2021/05/29 09:14:30;;;;;;;1.60;1.30;;;;;;;12.34;68.44;99994.65;1796829;77;20995;-66
2021/05/29 09:17:19;;;;;;;1.75;1.25;;;;;;;12.00;68.81;100004.64;1801142;78;21602;-64
2021/05/29 09:20:11;;;;;;;1.55;1.30;;;;;;;11.83;69.16;99980.09;1801233;78;21795;-65
2021/05/29 09:22:54;;;;;;;1.40;1.30;;;;;;;11.95;69.33;100001.39;1801506;78;21090;-64
2021/05/29 09:25:23;;;;;;;1.87;1.40;;;;;;;12.45;69.50;100000.66;1801157;78;21019;-64
2021/05/29 09:28:02;;;;;;;1.90;1.42;;;;;;;12.45;69.50;100000.66;1808988;78;21022;-65
2021/05/29 09:30:55;;;;;;;2.12;1.27;;;;;;;12.54;69.01;100002.34;1805762;78;21012;-65
2021/05/29 09:33:26;;;;;;;2.08;1.42;;;;;;;12.40;68.74;99992.19;1799827;78;21310;-65
2021/05/29 09:36:10;;;;;;;2.75;1.47;;;;;;;12.42;69.13;100001.66;1780959;78;21628;-65
2021/05/29 09:38:46;;;;;;;1.82;1.30;;;;;;;12.41;68.82;100006.52;1808040;78;21047;-64
2021/05/29 09:41:28;;;;;;;1.37;1.02;;;;;;;12.56;68.72;100005.36;1808043;78;21614;-65
2021/05/29 09:44:10;;;;;;;1.42;0.90;;;;;;;12.61;68.49;100001.58;1808220;78;21185;-65
2021/05/29 09:46:54;;;;;;;2.27;1.52;;;;;;;12.67;68.93;100006.50;1799777;78;21232;-65
2021/05/29 09:49:25;;;;;;;1.30;0.93;;;;;;;12.83;68.91;100010.97;1799522;78;21013;-63
2021/05/29 09:51:52;;;;;;;2.02;1.60;;;;;;;13.04;68.55;100011.13;1803075;78;21019;-65
2021/05/29 09:54:19;;;;;;;1.15;1.00;;;;;;;12.94;67.84;100011.25;1797297;77;21033;-65
2021/05/29 09:56:45;;;;;;;4.85;1.40;;;;;;;12.97;67.75;100007.16;1798918;78;20914;-65
2021/05/29 09:59:23;;;;;;;1.27;1.00;;;;;;;12.94;67.39;100017.34;1803905;78;21067;-65
2021/05/29 10:01:53;;;;;;;1.30;1.20;;;;;;;12.79;67.87;100022.52;1801962;78;21019;-66
2021/05/29 10:04:37;;;;;;;3.17;1.25;;;;;;;12.56;67.63;100021.92;1804242;78;21601;-65
2021/05/29 10:07:11;;;;;;;1.80;1.00;;;;;;;12.37;67.59;100023.77;1800833;78;21068;-65
2021/05/29 10:09:40;;;;;;;2.02;1.20;;;;;;;12.16;67.08;100027.84;1805464;78;21007;-65
2021/05/29 10:12:08;;;;;;;1.35;1.10;;;;;;;11.91;67.65;100020.79;1806839;78;21051;-65
2021/05/29 10:14:35;;;;;;;0.90;0.90;;;;;;;11.88;67.87;100031.41;1802987;77;21938;-65
2021/05/29 10:17:10;;;;;;;2.17;0.90;;;;;;;11.83;67.96;100027.19;1794268;78;21048;-65
2021/05/29 10:19:39;;;;;;;0.90;0.80;;;;;;;11.90;67.84;100038.23;1774493;79;21035;-65
2021/05/29 10:22:12;;;;;;;0.82;0.80;;;;;;;11.99;67.64;100036.97;1772282;79;20972;-65
2021/05/29 10:24:40;;;;;;;1.02;0.93;;;;;;;12.14;68.06;100037.99;1798456;78;21094;-65
2021/05/29 10:27:13;;;;;;;1.87;0.80;;;;;;;12.33;67.69;100035.33;1769385;80;21096;-65
2021/05/29 10:29:40;;;;;;;0.98;0.80;;;;;;;12.53;68.02;100035.17;1789892;78;20948;-66
2021/05/29 10:32:19;;;;;;;1.05;0.78;;;;;;;12.81;67.78;100028.53;1759546;79;21601;-65
2021/05/29 10:35:12;;;;;;;0.60;0.60;;;;;;;13.08;67.79;100034.96;1799429;78;21218;-65
2021/05/29 10:37:44;;;;;;;1.70;0.95;;;;;;;13.50;67.86;100032.75;1796661;79;21047;-66
2021/05/29 10:40:22;;;;;;;0.75;0.75;;;;;;;13.68;67.16;100036.17;1791082;78;21015;-65
2021/05/29 10:43:19;;;;;;;0.65;0.60;;;;;;;13.66;66.59;100034.45;1800685;78;20980;-64
2021/05/29 10:45:57;;;;;;;2.35;0.75;;;;;;;13.45;65.42;100040.89;1785441;78;21001;-65
2021/05/29 10:48:25;;;;;;;1.85;0.80;;;;;;;13.38;67.18;100034.27;1780412;79;21040;-65
2021/05/29 10:51:03;;;;;;;0.80;0.50;;;;;;;13.43;66.84;100040.97;1788204;78;21037;-65
2021/05/29 10:53:46;;;;;;;0.93;0.80;;;;;;;13.35;65.79;100052.80;1758090;79;21094;-65
2021/05/29 10:56:26;;;;;;;1.62;0.60;;;;;;;13.29;66.04;100045.27;1795265;79;21004;-66
2021/05/29 10:59:09;;;;;;;1.35;0.60;;;;;;;13.49;66.46;100039.78;1793320;78;21610;-67
2021/05/29 11:01:42;;;;;;;0.82;0.60;;;;;;;13.57;65.75;100048.09;1798953;79;20985;-66
2021/05/29 11:04:24;;;;;;;0.50;0.50;;;;;;;13.42;64.22;100062.05;1794119;79;20977;-66
2021/05/29 11:06:54;;;;;;;1.45;0.57;;;;;;;13.37;63.32;100064.06;1792450;79;21000;-66
2021/05/29 11:09:35;;;;;;;1.95;0.50;;;;;;;13.30;62.89;100057.44;1795143;78;21012;-66
2021/05/29 11:12:08;;;;;;;1.05;0.50;;;;;;;13.08;64.03;100058.55;1799082;78;20984;-65
2021/05/29 11:14:56;;;;;;;1.02;0.50;;;;;;;12.96;64.52;100064.41;1775097;78;20987;-65
2021/05/29 11:17:27;;;;;;;1.45;0.65;;;;;;;13.16;64.67;100066.87;1750488;78;21086;-65
2021/05/29 11:20:19;;;;;;;0.30;0.30;;;;;;;13.06;63.23;100064.80;1755859;79;21094;-65
2021/05/29 11:22:44;;;;;;;;;;;;;;;12.82;62.63;100072.14;1745924;78;21032;-65
2021/05/29 11:25:15;;;;;;;0.60;0.40;;;;;;;12.71;63.59;100070.06;1744149;80;20674;-65
2021/05/29 11:27:44;;;;;;;0.40;0.40;;;;;;;12.65;64.08;100071.22;1772023;78;21079;-65
2021/05/29 11:30:20;;;;;;;0.50;0.40;;;;;;;12.57;64.17;100070.75;1772843;78;21332;-65
2021/05/29 11:35:47;;;;;;;2.15;0.33;;;;;;;12.41;64.01;100075.08;1768864;79;20976;-64
2021/05/29 11:38:25;;;;;;;2.22;0.40;;;;;;;12.11;63.56;100080.86;1762620;80;21148;-65
2021/05/29 11:41:15;;;;;;;0.95;0.40;;;;;;;11.96;63.76;100081.58;1738133;81;21071;-65
2021/05/29 11:43:55;;;;;;;1.55;0.40;;;;;;;11.83;63.05;100089.14;1744252;80;21280;-65
2021/05/29 11:46:28;;;;;;;0.30;0.30;;;;;;;11.67;62.66;100090.30;1738860;80;21039;-65
2021/05/29 11:49:06;;;;;;;0.62;0.30;;;;;;;11.61;63.00;100087.50;1752577;80;21068;-65
2021/05/29 11:51:36;;;;;;;0.65;0.30;;;;;;;11.57;62.79;100082.50;1742327;80;21039;-65
2021/05/29 11:54:18;;;;;;;0.78;0.65;;;;;;;11.77;61.57;100073.73;1751761;80;22405;-65
2021/05/29 11:57:05;;;;;;;0.78;0.47;;;;;;;11.77;61.57;100073.73;1772616;80;21841;-65
2021/05/29 11:59:32;;;;;;;1.07;0.60;;;;;;;12.10;62.80;100097.50;1710399;82;21010;-65
2021/05/29 12:01:59;;;;;;;1.45;0.80;;;;;;;12.18;61.88;100092.72;1731438;82;21012;-66
2021/05/29 12:04:29;;;;;;;0.70;0.70;;;;;;;12.14;61.85;100087.26;1728856;80;21005;-65
2021/05/29 12:07:02;;;;;;;0.68;0.68;;;;;;;12.09;62.61;100093.17;1724226;81;21095;-65
2021/05/29 12:09:36;;;;;;;0.75;0.30;;;;;;;11.95;62.11;100096.44;1732890;82;21136;-65